Time;durP1;ratioP1;P1;durP2;ratioP2;P2;SDS_P1;SDS_P2;PMS_P1;PMS_P2;Temp;Humidity;BMP_temperature;BMP_pressure;BME280_temperature;BME280_humidity;BME280_pressure;Samples;Min_cycle;Max_cycle;Signal;HPM_P1;HPM_P2
2022/04/23 00:00:22;;;;;;;16.57;14.77;;;;;;;16.01;45.41;96056.38;5056227;28;20178;-71
2022/04/23 00:02:48;;;;;;;19.53;15.13;;;;;;;15.82;46.09;96055.47;5053536;28;20201;-72
2022/04/23 00:05:14;;;;;;;15.87;14.17;;;;;;;15.84;46.01;96052.63;5070186;28;20252;-71
2022/04/23 00:07:40;;;;;;;21.13;14.83;;;;;;;15.90;45.59;96051.78;5069767;28;20416;-71
2022/04/23 00:10:08;;;;;;;18.80;16.00;;;;;;;15.92;45.60;96047.09;5071392;28;20264;-70
2022/04/23 00:12:33;;;;;;;20.50;16.47;;;;;;;15.73;46.06;96046.19;5071033;28;20236;-69
2022/04/23 00:14:59;;;;;;;17.30;15.47;;;;;;;15.63;45.93;96041.38;5071313;28;20786;-72
2022/04/23 00:17:24;;;;;;;16.40;14.70;;;;;;;15.64;46.43;96045.63;5070912;28;20214;-72
2022/04/23 00:19:50;;;;;;;21.80;15.50;;;;;;;15.73;45.93;96040.91;5071135;28;20273;-71
2022/04/23 00:22:16;;;;;;;18.00;15.87;;;;;;;15.61;46.30;96046.88;5067570;28;20677;-70
2022/04/23 00:24:42;;;;;;;20.63;15.30;;;;;;;15.57;46.39;96043.03;5065837;28;20178;-70
2022/04/23 00:27:08;;;;;;;19.00;15.20;;;;;;;15.60;46.48;96052.38;5070234;28;20754;-71
2022/04/23 00:29:35;;;;;;;18.87;15.70;;;;;;;15.67;46.43;96050.50;5070672;28;20494;-72
2022/04/23 00:32:00;;;;;;;19.03;16.60;;;;;;;15.70;46.23;96059.81;5070892;28;20170;-70
2022/04/23 00:34:26;;;;;;;18.67;15.93;;;;;;;15.74;46.16;96061.84;5070683;28;20520;-73
2022/04/23 00:36:51;;;;;;;17.07;15.20;;;;;;;15.72;46.28;96061.25;5070499;28;20290;-68
2022/04/23 00:39:17;;;;;;;18.43;15.90;;;;;;;15.78;46.54;96064.88;5070640;28;20541;-69
2022/04/23 00:41:46;;;;;;;18.93;15.77;;;;;;;15.74;46.61;96058.38;5070739;28;20349;-71
2022/04/23 00:44:12;;;;;;;19.63;14.90;;;;;;;15.78;46.54;96059.59;5070950;28;20190;-70
2022/04/23 00:46:37;;;;;;;18.70;15.63;;;;;;;15.68;46.79;96064.53;5070416;28;20788;-71
2022/04/23 00:49:03;;;;;;;18.20;14.40;;;;;;;15.51;46.98;96057.88;5072199;28;20205;-69
2022/04/23 00:51:29;;;;;;;15.10;13.50;;;;;;;15.36;47.86;96058.19;5071992;28;20236;-69
2022/04/23 00:53:56;;;;;;;14.03;12.53;;;;;;;15.29;48.43;96054.78;5071192;28;20182;-71
2022/04/23 00:56:22;;;;;;;14.37;12.97;;;;;;;15.20;48.72;96056.00;5066470;28;20952;-70
2022/04/23 00:58:49;;;;;;;13.80;12.43;;;;;;;15.15;48.87;96051.38;5070825;28;20463;-70
2022/04/23 01:01:18;;;;;;;18.87;13.57;;;;;;;15.22;48.36;96050.53;5072798;28;20974;-70
2022/04/23 01:03:44;;;;;;;15.33;13.50;;;;;;;15.25;48.37;96050.13;5070318;28;20425;-70
2022/04/23 01:06:11;;;;;;;16.30;14.47;;;;;;;15.27;47.87;96051.53;5071019;28;20786;-71
2022/04/23 01:08:37;;;;;;;16.53;14.73;;;;;;;15.20;47.72;96056.00;5070316;28;20198;-70
2022/04/23 01:11:03;;;;;;;17.50;13.30;;;;;;;15.16;48.00;96054.84;5070855;28;20436;-70
2022/04/23 01:13:29;;;;;;;18.03;14.70;;;;;;;15.02;48.21;96051.41;5070258;28;20558;-70
2022/04/23 01:16:07;;;;;;;14.60;13.10;;;;;;;15.12;48.51;96057.06;5070459;28;20440;-72
2022/04/23 01:18:34;;;;;;;15.53;13.87;;;;;;;15.18;48.15;96050.94;5070401;28;20273;-73
2022/04/23 01:21:01;;;;;;;15.83;13.87;;;;;;;15.17;47.96;96044.06;5070160;28;20432;-70
2022/04/23 01:23:27;;;;;;;17.10;13.03;;;;;;;15.23;47.92;96044.25;5069159;28;20787;-71
2022/04/23 01:25:53;;;;;;;19.40;13.73;;;;;;;15.07;48.03;96037.59;5068842;28;20440;-69
2022/04/23 01:28:23;;;;;;;21.23;15.13;;;;;;;14.95;47.88;96037.44;5070361;28;20327;-71
2022/04/23 01:30:49;;;;;;;17.40;14.30;;;;;;;14.99;47.95;96036.03;5070177;28;20823;-71
2022/04/23 01:33:15;;;;;;;17.90;14.73;;;;;;;14.92;48.13;96033.41;5070421;28;20451;-69
2022/04/23 01:35:42;;;;;;;21.50;13.23;;;;;;;14.94;48.33;96028.72;5061969;28;20452;-71
2022/04/23 01:38:07;;;;;;;16.00;13.43;;;;;;;15.03;48.22;96034.56;5069193;28;20236;-70
2022/04/23 01:40:32;;;;;;;16.10;14.10;;;;;;;15.04;48.36;96036.19;5072911;28;20790;-71
2022/04/23 01:42:58;;;;;;;16.10;13.20;;;;;;;15.05;47.81;96035.16;5073953;28;20300;-71
2022/04/23 01:45:24;;;;;;;17.73;14.53;;;;;;;14.83;48.48;96032.81;5073442;28;20272;-73
2022/04/23 01:47:49;;;;;;;15.43;13.40;;;;;;;14.73;48.25;96035.09;5073828;28;20248;-70
2022/04/23 01:50:15;;;;;;;16.80;14.50;;;;;;;14.79;48.32;96044.78;5074794;28;20193;-70
2022/04/23 01:52:40;;;;;;;18.33;15.10;;;;;;;14.80;48.55;96046.41;5073412;28;20185;-72
2022/04/23 01:55:06;;;;;;;16.50;14.00;;;;;;;14.71;48.91;96045.81;5073675;28;20629;-70
2022/04/23 01:57:32;;;;;;;14.90;12.63;;;;;;;14.67;48.45;96043.78;5073197;28;20671;-70
2022/04/23 01:59:58;;;;;;;15.43;13.10;;;;;;;14.63;48.71;96039.94;5075393;28;20527;-72
2022/04/23 02:02:23;;;;;;;21.20;13.30;;;;;;;14.64;49.32;96049.47;5073660;28;20305;-72
2022/04/23 02:04:48;;;;;;;14.23;12.33;;;;;;;14.65;49.19;96056.34;5073700;28;20305;-70
2022/04/23 02:07:14;;;;;;;15.37;12.30;;;;;;;14.62;49.17;96059.44;5072327;28;20183;-70
2022/04/23 02:09:39;;;;;;;15.40;13.30;;;;;;;14.57;49.40;96050.31;5073078;28;20186;-70
2022/04/23 02:12:05;;;;;;;14.53;12.67;;;;;;;14.54;49.16;96052.53;5073380;28;20260;-70
2022/04/23 02:14:31;;;;;;;14.97;13.07;;;;;;;14.55;48.79;96054.16;5072991;28;20550;-70
2022/04/23 02:16:56;;;;;;;16.20;13.97;;;;;;;14.45;49.60;96054.56;5073425;28;20665;-70
2022/04/23 02:19:22;;;;;;;14.70;12.13;;;;;;;14.41;49.75;96053.34;5071420;28;20186;-69
2022/04/23 02:21:48;;;;;;;15.10;12.70;;;;;;;14.46;49.65;96048.28;5074267;28;20301;-69
2022/04/23 02:24:13;;;;;;;14.57;13.03;;;;;;;14.51;49.41;96051.09;5072947;28;20175;-71
2022/04/23 02:26:39;;;;;;;14.93;13.33;;;;;;;14.43;49.84;96046.84;5073150;28;20206;-72
2022/04/23 02:29:04;;;;;;;14.13;12.60;;;;;;;14.48;49.53;96045.44;5073017;28;20205;-69
2022/04/23 02:31:30;;;;;;;15.40;12.70;;;;;;;14.45;49.44;96041.41;5072726;28;20212;-71
2022/04/23 02:33:57;;;;;;;15.00;13.30;;;;;;;14.47;49.40;96039.38;5072870;28;20465;-70
2022/04/23 02:36:22;;;;;;;14.63;13.03;;;;;;;14.32;49.34;96046.69;5071227;28;20222;-70
2022/04/23 02:38:50;;;;;;;16.87;13.27;;;;;;;14.32;50.27;96041.41;5080946;28;20782;-70
2022/04/23 02:41:15;;;;;;;15.27;13.67;;;;;;;14.27;50.18;96034.91;5072767;28;20202;-72
2022/04/23 02:43:43;;;;;;;14.57;13.07;;;;;;;14.33;50.06;96037.75;5064427;28;20502;-71
2022/04/23 02:46:09;;;;;;;14.87;13.30;;;;;;;14.35;50.13;96038.38;5072586;28;20249;-71
2022/04/23 02:48:38;;;;;;;17.40;13.23;;;;;;;14.34;50.06;96040.19;5072745;28;20435;-71
2022/04/23 02:51:04;;;;;;;16.03;13.30;;;;;;;14.29;50.19;96043.44;5072976;28;20436;-69
2022/04/23 02:53:29;;;;;;;17.70;14.23;;;;;;;14.21;50.44;96038.38;5072113;28;20431;-71
2022/04/23 02:55:56;;;;;;;16.10;13.87;;;;;;;14.31;50.76;96043.22;5072348;28;20208;-71
2022/04/23 02:58:24;;;;;;;16.43;14.70;;;;;;;14.20;50.60;96046.47;5071936;28;20194;-70
2022/04/23 03:00:49;;;;;;;15.53;13.67;;;;;;;14.18;50.56;96051.97;5074401;28;20518;-70
2022/04/23 03:03:15;;;;;;;16.63;13.83;;;;;;;14.22;51.17;96052.34;5069071;28;20495;-70
2022/04/23 03:05:42;;;;;;;16.43;14.63;;;;;;;14.07;51.22;96044.66;5071975;28;20292;-72
2022/04/23 03:08:11;;;;;;;16.17;14.20;;;;;;;14.09;50.37;96048.72;5072365;28;20182;-71
2022/04/23 03:10:39;;;;;;;16.43;14.73;;;;;;;14.02;51.37;96052.34;5071804;28;20478;-70
2022/04/23 03:13:06;;;;;;;15.50;13.90;;;;;;;14.10;51.34;96055.59;5071970;28;20444;-69
2022/04/23 03:15:31;;;;;;;17.60;15.40;;;;;;;14.03;51.94;96051.34;5071611;28;20460;-70
2022/04/23 03:18:04;;;;;;;17.63;15.73;;;;;;;14.09;51.77;96043.44;5071995;28;20424;-70
2022/04/23 03:20:30;;;;;;;17.80;15.90;;;;;;;14.10;51.67;96039.00;5072270;28;20284;-71
2022/04/23 03:22:56;;;;;;;18.33;15.60;;;;;;;13.96;51.54;96041.63;5071786;28;20471;-71
2022/04/23 03:25:22;;;;;;;16.77;15.07;;;;;;;13.96;50.59;96032.91;5071459;28;20448;-71
2022/04/23 03:27:48;;;;;;;17.60;14.63;;;;;;;13.90;50.84;96045.06;5071726;28;20210;-69
2022/04/23 03:30:14;;;;;;;16.70;14.90;;;;;;;13.78;51.21;96047.50;5071577;28;20456;-70
2022/04/23 03:32:39;;;;;;;17.80;15.00;;;;;;;13.70;50.99;96049.50;5066820;28;20183;-70
2022/04/23 03:35:05;;;;;;;19.50;14.23;;;;;;;13.55;51.47;96042.59;5064723;28;20428;-71
2022/04/23 03:37:31;;;;;;;17.53;15.23;;;;;;;13.58;51.24;96034.28;5069079;28;20194;-72
2022/04/23 03:39:56;;;;;;;17.97;14.97;;;;;;;13.51;51.30;96038.72;5063341;28;21088;-70
2022/04/23 03:42:22;;;;;;;16.27;14.20;;;;;;;13.59;51.25;96030.66;5055892;28;20686;-69
2022/04/23 03:44:47;;;;;;;18.80;14.73;;;;;;;13.61;50.81;96036.50;5080471;28;20181;-70
2022/04/23 03:47:13;;;;;;;17.60;15.43;;;;;;;13.54;50.79;96027.00;5091391;28;20204;-72
2022/04/23 03:49:38;;;;;;;15.90;13.90;;;;;;;13.34;51.29;96022.47;5082446;28;20181;-70
2022/04/23 03:52:04;;;;;;;16.60;14.90;;;;;;;13.35;51.74;96027.53;5070979;28;20683;-71
2022/04/23 03:54:29;;;;;;;16.40;14.70;;;;;;;13.39;51.56;96022.69;5085819;28;20193;-70
2022/04/23 03:56:55;;;;;;;19.40;16.67;;;;;;;13.41;51.51;96025.97;5084628;28;20201;-71
2022/04/23 03:59:23;;;;;;;18.40;16.50;;;;;;;13.37;52.42;96035.22;5085671;28;20210;-71
2022/04/23 04:01:48;;;;;;;21.37;15.33;;;;;;;13.41;52.79;96041.75;5090996;28;20288;-69
2022/04/23 04:04:14;;;;;;;19.33;16.30;;;;;;;13.44;52.15;96048.44;5089878;28;20435;-70
2022/04/23 04:06:43;;;;;;;18.27;16.30;;;;;;;13.44;52.33;96043.16;5090710;28;20205;-70
2022/04/23 04:09:09;;;;;;;21.93;16.33;;;;;;;13.32;51.53;96038.47;5091390;28;20428;-70
2022/04/23 04:14:18;;;;;;;17.40;15.30;;;;;;;13.16;51.39;96034.38;5070401;28;20181;-70
2022/04/23 04:16:45;;;;;;;19.90;15.90;;;;;;;13.11;52.12;96026.25;5081754;28;20803;-69
2022/04/23 04:19:15;;;;;;;18.40;15.70;;;;;;;13.04;51.95;96028.84;5085536;28;20189;-69
2022/04/23 04:21:44;;;;;;;22.77;16.07;;;;;;;13.14;51.66;96030.28;5089306;28;20962;-70
2022/04/23 04:24:13;;;;;;;18.10;16.00;;;;;;;13.02;51.63;96030.84;5072026;28;20918;-69
2022/04/23 04:26:44;;;;;;;19.77;16.27;;;;;;;13.02;52.31;96033.50;5090216;28;20452;-70
2022/04/23 04:29:13;;;;;;;18.20;15.47;;;;;;;13.05;52.50;96040.16;5090754;28;20424;-70
2022/04/23 04:31:48;;;;;;;21.67;16.57;;;;;;;13.08;53.46;96033.72;5081177;28;20460;-69
2022/04/23 04:34:16;;;;;;;18.93;16.80;;;;;;;13.19;53.41;96035.78;5079092;28;20439;-69
2022/04/23 04:36:41;;;;;;;17.80;15.87;;;;;;;13.29;53.55;96032.78;5074532;28;20538;-69
2022/04/23 04:39:07;;;;;;;18.30;16.40;;;;;;;13.31;52.81;96031.56;5090295;28;20515;-70
2022/04/23 04:41:35;;;;;;;21.60;15.67;;;;;;;13.36;52.38;96039.66;5079669;28;20213;-70
2022/04/23 04:44:01;;;;;;;18.03;15.60;;;;;;;13.19;52.29;96039.22;5075894;28;20189;-70
2022/04/23 04:46:27;;;;;;;20.33;15.60;;;;;;;13.28;52.08;96042.47;5073532;28;20457;-71
2022/04/23 04:48:53;;;;;;;17.73;15.87;;;;;;;13.25;52.58;96042.88;5083732;28;21114;-70
2022/04/23 04:51:18;;;;;;;18.40;16.30;;;;;;;13.26;52.94;96041.88;5073824;28;20185;-71
2022/04/23 04:53:44;;;;;;;18.47;15.80;;;;;;;13.37;53.15;96036.03;5090706;28;20186;-72
2022/04/23 04:56:09;;;;;;;16.87;15.23;;;;;;;13.40;52.61;96034.88;5086711;28;20209;-72
2022/04/23 04:58:35;;;;;;;16.93;14.80;;;;;;;13.45;52.83;96040.31;5078487;28;20262;-70
2022/04/23 05:01:01;;;;;;;18.03;16.00;;;;;;;13.51;53.04;96046.63;5075719;28;20186;-70
2022/04/23 05:03:27;;;;;;;17.13;15.37;;;;;;;13.44;53.42;96040.53;5088140;28;20189;-70
2022/04/23 05:05:52;;;;;;;16.67;14.87;;;;;;;13.55;53.64;96042.59;5089199;28;20946;-70
2022/04/23 05:08:18;;;;;;;18.20;15.13;;;;;;;13.52;53.70;96042.97;5075189;28;20214;-70
2022/04/23 05:10:43;;;;;;;17.10;15.30;;;;;;;13.49;53.76;96046.81;5067777;28;20270;-70
2022/04/23 05:13:09;;;;;;;16.17;14.37;;;;;;;13.59;53.81;96046.44;5072971;28;20190;-71
2022/04/23 05:15:34;;;;;;;18.70;14.47;;;;;;;13.69;54.11;96050.50;5091474;28;20577;-70
2022/04/23 05:18:00;;;;;;;16.27;14.57;;;;;;;13.76;53.84;96053.94;5091449;28;20591;-71
2022/04/23 05:20:26;;;;;;;17.57;15.67;;;;;;;13.71;54.51;96051.13;5067554;28;20502;-71
2022/04/23 05:22:51;;;;;;;15.83;14.13;;;;;;;13.76;54.44;96061.84;5094067;28;20287;-69
2022/04/23 05:25:16;;;;;;;19.00;14.00;;;;;;;13.87;54.47;96063.88;5092157;28;20331;-69
2022/04/23 05:27:42;;;;;;;17.03;15.10;;;;;;;13.96;54.20;96057.44;5094105;28;20185;-72
2022/04/23 05:30:08;;;;;;;16.27;14.57;;;;;;;14.03;54.16;96056.63;5077116;28;20234;-71
2022/04/23 05:32:33;;;;;;;15.27;13.63;;;;;;;14.09;53.84;96055.81;5093556;28;20185;-71
2022/04/23 05:34:59;;;;;;;14.87;13.37;;;;;;;14.12;53.70;96060.66;5093897;28;20186;-71
2022/04/23 05:37:24;;;;;;;15.70;14.10;;;;;;;14.10;53.95;96060.06;5075149;28;20203;-70
2022/04/23 05:39:50;;;;;;;16.70;14.93;;;;;;;14.06;54.39;96066.75;5093886;28;20307;-69
2022/04/23 05:42:15;;;;;;;16.27;13.60;;;;;;;14.09;54.39;96067.16;5073753;28;20220;-70
2022/04/23 05:44:41;;;;;;;16.90;15.10;;;;;;;14.08;54.42;96072.63;5073429;28;20182;-69
2022/04/23 05:47:06;;;;;;;16.77;14.57;;;;;;;14.05;54.32;96073.81;5080752;28;20262;-70
2022/04/23 05:49:32;;;;;;;18.17;13.83;;;;;;;14.11;54.62;96066.97;5075709;28;20186;-69
2022/04/23 05:51:57;;;;;;;17.00;15.30;;;;;;;14.04;54.35;96079.31;5064318;28;20185;-68
2022/04/23 05:54:22;;;;;;;15.60;13.97;;;;;;;14.00;54.90;96078.09;5073402;28;20594;-68
2022/04/23 05:56:48;;;;;;;15.47;13.93;;;;;;;14.01;54.60;96090.25;5073547;28;20240;-70
2022/04/23 05:59:13;;;;;;;16.40;14.70;;;;;;;13.91;54.50;96088.03;5074971;28;20194;-70
2022/04/23 06:01:39;;;;;;;15.53;13.97;;;;;;;13.91;54.62;96083.56;5070522;28;20293;-69
2022/04/23 06:04:04;;;;;;;15.27;13.67;;;;;;;13.84;54.63;96085.38;5073822;28;20189;-70
2022/04/23 06:06:30;;;;;;;15.27;13.67;;;;;;;13.93;54.61;96096.50;5073746;28;20260;-69
2022/04/23 06:08:57;;;;;;;16.03;14.07;;;;;;;13.88;54.41;96089.22;5072496;28;20191;-69
2022/04/23 06:11:22;;;;;;;14.87;13.27;;;;;;;13.86;54.58;96095.69;5073144;28;20187;-69
2022/04/23 06:13:48;;;;;;;16.27;13.80;;;;;;;13.93;54.48;96096.50;5073154;28;20420;-69
2022/04/23 06:16:13;;;;;;;15.00;12.70;;;;;;;13.95;54.18;96097.94;5072257;28;20217;-70
2022/04/23 06:18:38;;;;;;;16.07;14.37;;;;;;;13.97;54.37;96105.63;5072793;28;20186;-68
2022/04/23 06:21:04;;;;;;;14.80;13.30;;;;;;;13.95;54.26;96105.03;5067385;28;20190;-68
2022/04/23 06:23:29;;;;;;;15.73;14.07;;;;;;;14.03;54.01;96111.94;5071403;28;20187;-70
2022/04/23 06:25:55;;;;;;;15.20;13.70;;;;;;;14.06;53.86;96114.16;5076757;28;20234;-70
2022/04/23 06:28:21;;;;;;;15.73;14.10;;;;;;;14.11;53.90;96106.50;5072943;28;20646;-69
2022/04/23 06:30:46;;;;;;;14.87;13.37;;;;;;;14.10;53.54;96100.38;5073169;28;20186;-69
2022/04/23 06:33:12;;;;;;;14.17;12.77;;;;;;;14.05;53.48;96117.81;5073306;28;20269;-69
2022/04/23 06:35:37;;;;;;;14.70;13.13;;;;;;;14.00;53.53;96109.69;5075863;28;20193;-72
2022/04/23 06:38:02;;;;;;;12.73;11.53;;;;;;;14.04;53.59;96109.13;5078266;28;20205;-69
2022/04/23 06:40:28;;;;;;;14.27;12.57;;;;;;;13.93;53.36;96112.31;5072509;28;20182;-68
2022/04/23 06:42:53;;;;;;;13.83;12.33;;;;;;;13.97;53.32;96117.00;5072810;28;20206;-70
2022/04/23 06:45:19;;;;;;;13.50;12.10;;;;;;;13.98;53.01;96120.44;5072640;28;20210;-70
2022/04/23 06:47:44;;;;;;;12.90;10.93;;;;;;;14.10;53.03;96118.03;5074476;28;20300;-70
2022/04/23 06:50:10;;;;;;;15.17;13.60;;;;;;;14.06;53.01;96119.44;5073273;28;20181;-71
2022/04/23 06:52:36;;;;;;;14.03;11.83;;;;;;;13.98;52.88;96115.16;5072781;28;20186;-68
2022/04/23 06:55:03;;;;;;;12.70;11.50;;;;;;;14.03;53.12;96114.56;5076775;28;20182;-71
2022/04/23 06:57:28;;;;;;;12.90;11.60;;;;;;;14.15;52.59;96120.06;5051137;28;21988;-70
2022/04/23 06:59:54;;;;;;;13.40;11.40;;;;;;;14.19;52.29;96113.34;5078859;28;20523;-71
2022/04/23 07:02:20;;;;;;;13.43;11.43;;;;;;;14.18;52.46;96120.47;5080967;28;20210;-70
2022/04/23 07:04:46;;;;;;;11.43;10.33;;;;;;;14.18;52.19;96115.19;5074221;28;20182;-70
2022/04/23 07:07:12;;;;;;;13.30;10.80;;;;;;;14.23;51.81;96123.31;5084038;28;20489;-69
2022/04/23 07:09:38;;;;;;;12.27;11.00;;;;;;;14.25;52.30;96131.81;5067941;28;20182;-70
2022/04/23 07:12:05;;;;;;;12.40;10.57;;;;;;;13.95;52.31;96136.63;5080464;28;20781;-70
2022/04/23 07:14:31;;;;;;;11.60;10.50;;;;;;;14.06;52.03;96129.97;5075549;28;20261;-69
2022/04/23 07:16:57;;;;;;;11.70;10.50;;;;;;;14.08;51.97;96125.31;5077027;28;20448;-70
2022/04/23 07:19:23;;;;;;;11.47;10.27;;;;;;;14.18;51.95;96125.72;5076046;28;20527;-69
2022/04/23 07:21:48;;;;;;;12.60;11.17;;;;;;;14.16;51.80;96119.84;5076583;28;20237;-71
2022/04/23 07:24:15;;;;;;;12.10;10.90;;;;;;;14.10;51.84;96123.31;5077918;28;20596;-69
2022/04/23 07:26:41;;;;;;;12.10;11.00;;;;;;;14.28;51.84;96131.41;5079420;28;20197;-69
2022/04/23 07:29:09;;;;;;;12.03;10.83;;;;;;;14.38;51.52;96136.28;5076594;28;20985;-68
2022/04/23 07:31:36;;;;;;;12.40;11.10;;;;;;;14.25;51.51;96129.16;5071340;28;20958;-69
2022/04/23 07:39:30;;;;;;;12.07;10.87;;;;;;;14.37;51.04;96128.56;5071391;28;20516;-69
2022/04/23 07:41:55;;;;;;;11.60;10.40;;;;;;;14.40;50.99;96136.06;5071419;28;21050;-69
2022/04/23 07:44:23;;;;;;;12.17;10.87;;;;;;;14.22;51.46;96132.22;5071584;28;20228;-70
2022/04/23 07:46:49;;;;;;;11.93;10.73;;;;;;;14.32;51.28;96128.38;5071966;28;20259;-70
2022/04/23 07:49:15;;;;;;;11.70;10.50;;;;;;;14.53;51.07;96122.91;5081317;28;20945;-70
2022/04/23 07:51:42;;;;;;;11.63;10.53;;;;;;;14.57;50.93;96129.38;5063100;28;20425;-71
2022/04/23 07:54:08;;;;;;;12.83;10.70;;;;;;;14.41;51.23;96130.63;5074546;28;20192;-69
2022/04/23 07:56:35;;;;;;;12.47;11.17;;;;;;;14.53;51.09;96130.81;5072138;28;20452;-72
2022/04/23 07:59:00;;;;;;;13.50;12.10;;;;;;;14.43;50.82;96139.09;5073107;28;20186;-70
2022/04/23 08:01:26;;;;;;;13.40;11.57;;;;;;;14.48;50.84;96137.69;5077849;28;20463;-70
2022/04/23 08:03:51;;;;;;;12.07;10.80;;;;;;;14.51;50.94;96127.56;5081279;28;20181;-73
2022/04/23 08:06:17;;;;;;;12.90;11.60;;;;;;;14.50;50.71;96131.19;5079544;28;20205;-71
2022/04/23 08:08:43;;;;;;;12.30;11.00;;;;;;;14.59;50.62;96131.81;5070040;28;20202;-73
2022/04/23 08:11:09;;;;;;;15.13;12.00;;;;;;;14.65;50.49;96125.75;5072008;28;20180;-71
2022/04/23 08:13:34;;;;;;;12.60;11.30;;;;;;;14.61;50.69;96129.00;5072147;28;20200;-75
2022/04/23 08:16:00;;;;;;;12.60;11.30;;;;;;;14.63;50.77;96132.22;5079206;28;20206;-71
2022/04/23 08:18:27;;;;;;;13.40;11.63;;;;;;;14.70;50.31;96128.59;5078299;28;20224;-71
2022/04/23 08:20:52;;;;;;;11.40;9.67;;;;;;;14.78;50.35;96134.69;5066583;28;20643;-70
2022/04/23 08:23:19;;;;;;;12.60;11.40;;;;;;;14.79;50.19;96128.38;5068092;28;20486;-71
2022/04/23 08:25:46;;;;;;;12.97;11.67;;;;;;;14.93;49.63;96131.81;5053491;28;20209;-71
2022/04/23 08:30:56;;;;;;;12.40;11.13;;;;;;;14.57;49.77;96134.66;5065324;28;20927;-71
2022/04/23 08:33:22;;;;;;;14.43;11.00;;;;;;;14.67;49.69;96133.44;5070671;28;20482;-70
2022/04/23 08:35:47;;;;;;;12.13;10.93;;;;;;;14.86;49.56;96137.91;5069792;28;20517;-73
2022/04/23 08:38:13;;;;;;;13.83;11.13;;;;;;;14.89;49.44;96131.41;5079527;28;20221;-68
2022/04/23 08:40:44;;;;;;;12.50;11.20;;;;;;;15.12;49.42;96127.50;5070175;28;20184;-70
2022/04/23 08:43:10;;;;;;;11.90;10.70;;;;;;;15.18;48.68;96135.41;5070864;28;20259;-70
2022/04/23 08:45:37;;;;;;;11.10;9.97;;;;;;;15.14;48.68;96128.09;5070497;28;20445;-69
2022/04/23 08:48:10;;;;;;;16.50;11.50;;;;;;;15.04;48.88;96123.25;5071256;28;20478;-71
2022/04/23 08:50:36;;;;;;;13.17;11.10;;;;;;;14.96;49.36;96126.13;5073222;28;20436;-70
2022/04/23 08:53:02;;;;;;;12.50;10.87;;;;;;;14.96;48.87;96126.13;5075508;28;20519;-68
2022/04/23 08:55:27;;;;;;;15.00;11.67;;;;;;;15.19;49.03;96123.00;5085374;28;20504;-69
2022/04/23 08:57:54;;;;;;;12.40;11.20;;;;;;;15.09;48.72;96117.34;5074144;28;20194;-71
2022/04/23 09:00:20;;;;;;;12.97;11.60;;;;;;;15.25;48.73;96122.19;5075745;28;20273;-69
2022/04/23 09:02:46;;;;;;;11.80;10.60;;;;;;;14.96;49.18;96126.13;5075345;28;20587;-70
2022/04/23 09:05:12;;;;;;;12.63;11.33;;;;;;;15.19;48.92;96126.47;5082573;28;20690;-69
2022/04/23 09:07:38;;;;;;;16.50;12.40;;;;;;;15.00;48.81;96127.31;5083095;28;20429;-69
2022/04/23 09:10:06;;;;;;;14.13;12.50;;;;;;;15.08;48.98;96124.47;5079939;28;20949;-69
2022/04/23 09:12:31;;;;;;;13.23;11.83;;;;;;;15.13;48.82;96116.72;5075767;28;20456;-69
2022/04/23 09:23:39;;;;;;;12.80;11.50;;;;;;;15.16;49.27;96121.59;5074477;28;20943;-70
2022/04/23 09:23:43;;;;;;;12.90;11.40;;;;;;;15.29;48.62;96118.13;5076343;28;20439;-69
2022/04/23 09:26:18;;;;;;;12.77;11.20;;;;;;;15.38;48.18;96123.94;5070759;28;20456;-70
2022/04/23 09:28:48;;;;;;;13.33;11.80;;;;;;;15.56;48.24;96128.56;5070057;28;20457;-69
2022/04/23 09:31:15;;;;;;;12.50;11.20;;;;;;;15.65;47.97;96132.59;5079890;28;20439;-70
2022/04/23 09:33:45;;;;;;;12.50;11.00;;;;;;;15.72;47.44;96122.00;5082071;28;20561;-71
2022/04/23 09:36:12;;;;;;;12.13;10.57;;;;;;;15.71;47.35;96115.09;5074031;28;20467;-70
2022/04/23 09:38:38;;;;;;;12.50;11.00;;;;;;;15.73;47.34;96123.59;5071979;28;20506;-71
2022/04/23 09:41:16;;;;;;;12.53;11.20;;;;;;;15.70;47.19;96125.84;5073277;28;20428;-69
2022/04/23 09:43:43;;;;;;;13.13;11.50;;;;;;;15.60;47.34;96121.03;5071635;28;20416;-68
2022/04/23 09:46:09;;;;;;;14.00;10.77;;;;;;;15.55;47.46;96129.59;5073772;28;20484;-69
2022/04/23 09:48:37;;;;;;;14.27;11.63;;;;;;;15.42;47.88;96116.44;5076395;28;20496;-69
2022/04/23 09:51:03;;;;;;;12.60;11.27;;;;;;;15.58;47.44;96118.59;5067787;28;20452;-68
2022/04/23 09:53:29;;;;;;;13.97;11.30;;;;;;;15.51;47.52;96115.97;5072352;28;20908;-70
2022/04/23 09:55:59;;;;;;;11.67;9.97;;;;;;;15.71;47.42;96116.91;5070639;28;20514;-70
2022/04/23 09:58:31;;;;;;;12.80;10.67;;;;;;;15.84;46.86;96110.75;5072795;28;20182;-69
2022/04/23 10:00:57;;;;;;;12.80;10.80;;;;;;;16.03;46.54;96111.69;5074950;28;21124;-69
2022/04/23 10:03:31;;;;;;;14.70;10.80;;;;;;;16.09;46.99;96109.00;5022776;28;20475;-71
2022/04/23 10:05:58;;;;;;;11.77;9.23;;;;;;;16.11;46.65;96112.22;5073548;28;20456;-70
2022/04/23 10:08:29;;;;;;;11.30;9.70;;;;;;;16.14;46.03;96113.63;5073464;28;20443;-71
2022/04/23 10:11:11;;;;;;;10.60;9.50;;;;;;;16.41;45.81;96111.59;5073486;28;20431;-69
2022/04/23 10:13:42;;;;;;;13.20;9.63;;;;;;;16.41;45.67;96111.59;5055772;28;20474;-68
2022/04/23 10:16:08;;;;;;;10.40;8.80;;;;;;;16.52;45.68;96115.38;5073854;28;20905;-70
2022/04/23 10:18:38;;;;;;;9.87;8.87;;;;;;;16.46;45.43;96112.78;5074349;28;20939;-70
2022/04/23 10:21:08;;;;;;;13.17;9.40;;;;;;;16.51;45.48;96105.00;5078603;28;20494;-69
2022/04/23 10:23:46;;;;;;;9.23;8.30;;;;;;;16.25;45.71;96115.56;5071800;28;20420;-70
2022/04/23 10:26:26;;;;;;;9.30;8.30;;;;;;;16.47;45.30;96114.41;5077156;28;20448;-69
2022/04/23 10:28:51;;;;;;;9.23;8.20;;;;;;;16.66;45.12;96108.13;5066575;28;20417;-69
2022/04/23 10:31:17;;;;;;;8.20;7.40;;;;;;;16.71;44.56;96110.09;5072043;28;20433;-70
2022/04/23 10:33:52;;;;;;;8.47;7.60;;;;;;;16.90;44.85;96110.94;5074114;28;20179;-68
2022/04/23 10:36:21;;;;;;;9.40;8.17;;;;;;;16.97;44.13;96103.78;5073138;28;20625;-70
2022/04/23 10:38:54;;;;;;;12.70;8.40;;;;;;;16.97;44.50;96103.78;5074506;28;20428;-70
2022/04/23 10:41:24;;;;;;;9.77;8.77;;;;;;;17.24;44.14;96086.78;5072984;28;20511;-71
2022/04/23 10:43:49;;;;;;;10.80;9.80;;;;;;;17.09;43.94;96089.81;5055424;28;20499;-70
2022/04/23 10:46:36;;;;;;;12.90;9.37;;;;;;;17.23;43.78;96086.00;5073673;28;20454;-71
2022/04/23 10:49:21;;;;;;;10.53;8.20;;;;;;;17.25;44.12;96083.94;5076943;28;20192;-69
2022/04/23 10:51:53;;;;;;;61.83;44.80;;;;;;;17.33;43.34;96088.91;5057419;28;20478;-70
2022/04/23 10:54:40;;;;;;;16.60;13.07;;;;;;;17.25;43.07;96088.41;5076114;28;20917;-70
2022/04/23 10:57:07;;;;;;;12.20;10.40;;;;;;;17.33;43.06;96090.75;5068726;28;20448;-69
2022/04/23 10:59:40;;;;;;;19.47;10.20;;;;;;;17.08;43.65;96094.28;5090838;28;20424;-69
2022/04/23 11:02:14;;;;;;;12.87;10.90;;;;;;;17.13;44.06;96091.00;5093432;28;20451;-69
2022/04/23 11:13:32;;;;;;;11.93;10.63;;;;;;;17.38;43.61;96084.81;5070249;28;20919;-69
2022/04/23 11:16:16;;;;;;;11.03;9.77;;;;;;;17.13;44.20;96083.06;5070011;28;20445;-70
2022/04/23 11:18:43;;;;;;;11.17;9.97;;;;;;;17.17;44.22;96081.56;5071918;28;20209;-71
2022/04/23 11:21:26;;;;;;;17.63;11.00;;;;;;;17.30;43.85;96085.91;5080059;28;20927;-70
2022/04/23 11:23:56;;;;;;;14.10;11.37;;;;;;;17.27;43.63;96081.84;5065241;28;20536;-71
2022/04/23 11:26:38;;;;;;;12.20;10.87;;;;;;;17.19;43.61;96084.81;5072177;28;20479;-68
2022/04/23 11:29:03;;;;;;;13.80;11.00;;;;;;;17.27;43.38;96081.84;5075656;28;20774;-69
2022/04/23 11:31:29;;;;;;;11.77;10.57;;;;;;;17.00;44.12;96082.19;5070368;28;20489;-69
2022/04/23 11:33:55;;;;;;;11.93;10.70;;;;;;;17.18;43.80;96068.13;5085549;28;20240;-71
2022/04/23 11:36:34;;;;;;;13.73;10.60;;;;;;;17.13;44.50;96069.81;5073973;28;20210;-69
2022/04/23 11:39:08;;;;;;;12.03;10.83;;;;;;;17.31;43.66;96061.06;5077783;28;20435;-70
2022/04/23 11:41:36;;;;;;;12.00;10.17;;;;;;;17.37;43.87;96062.78;5072458;28;20445;-70